Portada
METAR-TAF:

METAR-TAF

Aeroports :

Aeroport de Lampedusa

Lampedusa, Itàlia

latitud: 35-30N, longitud: 012-36E, altitud: 16 m

Observació

L'informe es va fer fa 59 minuts, a les 10:50 UTC
Vent 11 kt del Sud/Sud-Est
Temperatura 26°C
Humitat 74%
Pressió 1016 hPa
Visibilitat 10 km o més
Núvols disperses a una alçada de 2000 ft

METAR: LICD 161050Z 16011KT 9999 SCT020 26/21 Q1016

Hora: 13:49 (11:49 UTC)

Pronòstic

L'informe es va fer fa 49 minuts, a les 11:00 UTC
Pronòstic vàlid del 16 a les 12 UTC al 17 a les 12 UTC
Vent 15 kt del Sud-Est
Visibilitat 10 km o més
Escasses núvols a una alçada de 9000 ft

TAF: LICD 161100Z 1612/1712 13015KT 9999 FEW090

Observacions i pronòstics meteorològics de més de 4000 aeroports (METAR i TAF).

Les estacions disponibles són els punts grocs i vermells al mapa.

Posi el ratolí al punt desitjat per veure el nom de l'estació.

Feu clic per veure les observacions i els pronòstics meteorològics.

Per canviar el mapa: feu clic els botons verds amb una creu de color negre per apropar; al botó verd amb un guió per allunyar la imatge; o en les fletxes verdes per a mapes adjacents.


METAR-TAF: